sensor_id;sensor_type;location;lat;lon;timestamp;P1;durP1;ratioP1;P2;durP2;ratioP2
62110;SDS011;48102;47.526;19.072;2023-09-08T03:40:55;9.82;;;3.97;;
62110;SDS011;48102;47.526;19.072;2023-09-08T03:44:00;5.25;;;4.03;;
62110;SDS011;48102;47.526;19.072;2023-09-08T03:47:03;7.45;;;3.85;;
62110;SDS011;48102;47.526;19.072;2023-09-08T03:50:06;5.72;;;3.80;;
62110;SDS011;48102;47.526;19.072;2023-09-08T03:53:11;4.72;;;3.50;;
62110;SDS011;48102;47.526;19.072;2023-09-08T03:56:15;7.37;;;3.78;;
62110;SDS011;48102;47.526;19.072;2023-09-08T03:59:17;7.20;;;4.15;;
62110;SDS011;48102;47.526;19.072;2023-09-08T04:05:23;5.93;;;4.17;;
62110;SDS011;48102;47.526;19.072;2023-09-08T04:08:26;10.43;;;4.57;;
62110;SDS011;48102;47.526;19.072;2023-09-08T04:11:29;5.30;;;4.05;;
62110;SDS011;48102;47.526;19.072;2023-09-08T04:14:32;4.45;;;3.58;;
62110;SDS011;48102;47.526;19.072;2023-09-08T04:17:37;5.50;;;3.85;;
62110;SDS011;48102;47.526;19.072;2023-09-08T04:20:40;6.57;;;4.05;;
62110;SDS011;48102;47.526;19.072;2023-09-08T04:23:43;14.05;;;4.53;;
62110;SDS011;48102;47.526;19.072;2023-09-08T04:26:46;5.30;;;3.83;;
62110;SDS011;48102;47.526;19.072;2023-09-08T04:29:49;4.93;;;3.60;;
62110;SDS011;48102;47.526;19.072;2023-09-08T04:32:53;6.43;;;4.10;;
62110;SDS011;48102;47.526;19.072;2023-09-08T04:35:56;4.97;;;3.67;;
62110;SDS011;48102;47.526;19.072;2023-09-08T04:38:59;6.37;;;4.28;;
62110;SDS011;48102;47.526;19.072;2023-09-08T04:42:03;10.02;;;4.30;;
62110;SDS011;48102;47.526;19.072;2023-09-08T04:45:06;5.07;;;3.97;;
62110;SDS011;48102;47.526;19.072;2023-09-08T04:48:10;10.25;;;4.30;;
62110;SDS011;48102;47.526;19.072;2023-09-08T04:51:13;6.47;;;4.22;;
62110;SDS011;48102;47.526;19.072;2023-09-08T04:54:17;6.97;;;4.37;;
62110;SDS011;48102;47.526;19.072;2023-09-08T05:00:26;6.25;;;4.07;;
62110;SDS011;48102;47.526;19.072;2023-09-08T05:03:31;5.93;;;4.03;;
62110;SDS011;48102;47.526;19.072;2023-09-08T05:06:34;7.32;;;3.87;;
62110;SDS011;48102;47.526;19.072;2023-09-08T05:09:38;5.35;;;4.30;;
62110;SDS011;48102;47.526;19.072;2023-09-08T05:12:41;8.15;;;4.05;;
62110;SDS011;48102;47.526;19.072;2023-09-08T05:15:45;7.50;;;3.92;;
62110;SDS011;48102;47.526;19.072;2023-09-08T05:18:51;5.65;;;3.83;;
62110;SDS011;48102;47.526;19.072;2023-09-08T05:21:55;4.25;;;3.50;;
62110;SDS011;48102;47.526;19.072;2023-09-08T05:24:58;8.38;;;4.47;;
62110;SDS011;48102;47.526;19.072;2023-09-08T05:28:01;5.85;;;3.92;;
62110;SDS011;48102;47.526;19.072;2023-09-08T05:31:05;5.10;;;3.85;;
62110;SDS011;48102;47.526;19.072;2023-09-08T05:34:09;5.50;;;3.78;;
62110;SDS011;48102;47.526;19.072;2023-09-08T05:37:13;12.50;;;4.95;;
62110;SDS011;48102;47.526;19.072;2023-09-08T05:43:23;5.43;;;4.03;;
62110;SDS011;48102;47.526;19.072;2023-09-08T05:46:28;6.12;;;4.05;;
62110;SDS011;48102;47.526;19.072;2023-09-08T05:49:32;6.47;;;3.97;;
62110;SDS011;48102;47.526;19.072;2023-09-08T05:52:39;5.70;;;3.90;;
62110;SDS011;48102;47.526;19.072;2023-09-08T05:55:42;7.37;;;3.72;;
62110;SDS011;48102;47.526;19.072;2023-09-08T05:58:45;7.87;;;3.90;;
62110;SDS011;48102;47.526;19.072;2023-09-08T06:01:49;7.97;;;4.15;;
62110;SDS011;48102;47.526;19.072;2023-09-08T06:04:52;6.45;;;4.22;;
62110;SDS011;48102;47.526;19.072;2023-09-08T06:07:55;6.22;;;4.25;;
62110;SDS011;48102;47.526;19.072;2023-09-08T06:11:09;11.93;;;4.57;;
62110;SDS011;48102;47.526;19.072;2023-09-08T06:17:16;7.78;;;4.07;;
62110;SDS011;48102;47.526;19.072;2023-09-08T06:20:21;6.68;;;4.10;;
62110;SDS011;48102;47.526;19.072;2023-09-08T06:23:24;8.63;;;3.80;;
62110;SDS011;48102;47.526;19.072;2023-09-08T06:26:27;7.37;;;3.83;;
62110;SDS011;48102;47.526;19.072;2023-09-08T06:29:32;10.88;;;4.10;;
62110;SDS011;48102;47.526;19.072;2023-09-08T06:32:35;6.80;;;4.25;;
62110;SDS011;48102;47.526;19.072;2023-09-08T06:35:39;7.82;;;4.35;;
62110;SDS011;48102;47.526;19.072;2023-09-08T06:38:41;8.93;;;3.67;;
62110;SDS011;48102;47.526;19.072;2023-09-08T06:41:45;7.35;;;4.20;;
62110;SDS011;48102;47.526;19.072;2023-09-08T06:44:49;9.05;;;4.20;;
62110;SDS011;48102;47.526;19.072;2023-09-08T06:47:52;6.82;;;3.80;;
62110;SDS011;48102;47.526;19.072;2023-09-08T06:50:58;10.02;;;4.45;;
62110;SDS011;48102;47.526;19.072;2023-09-08T06:54:02;5.78;;;3.75;;
62110;SDS011;48102;47.526;19.072;2023-09-08T06:57:06;6.57;;;4.05;;
62110;SDS011;48102;47.526;19.072;2023-09-08T07:00:10;5.30;;;3.78;;
62110;SDS011;48102;47.526;19.072;2023-09-08T07:03:14;5.20;;;3.62;;
62110;SDS011;48102;47.526;19.072;2023-09-08T07:06:17;5.55;;;3.50;;
62110;SDS011;48102;47.526;19.072;2023-09-08T07:09:21;6.85;;;4.18;;
62110;SDS011;48102;47.526;19.072;2023-09-08T07:12:24;5.60;;;3.40;;
62110;SDS011;48102;47.526;19.072;2023-09-08T07:18:30;5.75;;;3.65;;
62110;SDS011;48102;47.526;19.072;2023-09-08T07:21:37;7.30;;;4.20;;
62110;SDS011;48102;47.526;19.072;2023-09-08T07:24:41;8.07;;;3.65;;
62110;SDS011;48102;47.526;19.072;2023-09-08T07:27:44;5.72;;;3.92;;
62110;SDS011;48102;47.526;19.072;2023-09-08T07:30:49;6.55;;;3.50;;
62110;SDS011;48102;47.526;19.072;2023-09-08T07:33:52;4.65;;;3.55;;
62110;SDS011;48102;47.526;19.072;2023-09-08T07:36:56;5.12;;;4.05;;
62110;SDS011;48102;47.526;19.072;2023-09-08T07:39:59;11.43;;;4.45;;
62110;SDS011;48102;47.526;19.072;2023-09-08T07:43:02;5.70;;;3.95;;
62110;SDS011;48102;47.526;19.072;2023-09-08T07:46:08;9.23;;;4.10;;
62110;SDS011;48102;47.526;19.072;2023-09-08T07:49:11;6.45;;;4.28;;
62110;SDS011;48102;47.526;19.072;2023-09-08T07:52:16;7.18;;;3.78;;
62110;SDS011;48102;47.526;19.072;2023-09-08T07:55:22;5.55;;;3.33;;
62110;SDS011;48102;47.526;19.072;2023-09-08T07:58:26;9.98;;;4.07;;
62110;SDS011;48102;47.526;19.072;2023-09-08T08:01:29;7.03;;;4.53;;
62110;SDS011;48102;47.526;19.072;2023-09-08T08:04:32;8.00;;;4.30;;
62110;SDS011;48102;47.526;19.072;2023-09-08T08:10:40;6.18;;;3.83;;
62110;SDS011;48102;47.526;19.072;2023-09-08T08:14:03;13.30;;;3.95;;
62110;SDS011;48102;47.526;19.072;2023-09-08T08:17:06;7.25;;;4.28;;
62110;SDS011;48102;47.526;19.072;2023-09-08T08:20:10;6.82;;;3.60;;
62110;SDS011;48102;47.526;19.072;2023-09-08T08:23:20;6.28;;;4.15;;
62110;SDS011;48102;47.526;19.072;2023-09-08T08:26:23;6.35;;;3.60;;
62110;SDS011;48102;47.526;19.072;2023-09-08T08:29:30;13.77;;;4.97;;
62110;SDS011;48102;47.526;19.072;2023-09-08T08:32:33;9.07;;;4.37;;
62110;SDS011;48102;47.526;19.072;2023-09-08T08:35:37;7.75;;;4.25;;
62110;SDS011;48102;47.526;19.072;2023-09-08T08:38:40;6.25;;;3.67;;
62110;SDS011;48102;47.526;19.072;2023-09-08T08:41:43;13.32;;;4.22;;
62110;SDS011;48102;47.526;19.072;2023-09-08T08:44:46;9.07;;;3.47;;
62110;SDS011;48102;47.526;19.072;2023-09-08T08:47:49;7.28;;;4.05;;
62110;SDS011;48102;47.526;19.072;2023-09-08T08:50:52;10.93;;;3.97;;
62110;SDS011;48102;47.526;19.072;2023-09-08T08:53:56;11.73;;;4.22;;
62110;SDS011;48102;47.526;19.072;2023-09-08T08:56:59;12.52;;;4.25;;
62110;SDS011;48102;47.526;19.072;2023-09-08T09:00:04;9.00;;;4.10;;
62110;SDS011;48102;47.526;19.072;2023-09-08T09:03:12;7.45;;;4.00;;
62110;SDS011;48102;47.526;19.072;2023-09-08T09:09:39;8.77;;;3.72;;
62110;SDS011;48102;47.526;19.072;2023-09-08T09:12:43;5.90;;;4.00;;
62110;SDS011;48102;47.526;19.072;2023-09-08T09:15:46;4.70;;;3.72;;
62110;SDS011;48102;47.526;19.072;2023-09-08T09:19:01;10.85;;;3.95;;
62110;SDS011;48102;47.526;19.072;2023-09-08T09:22:03;8.63;;;4.30;;
62110;SDS011;48102;47.526;19.072;2023-09-08T09:25:07;5.30;;;3.72;;
62110;SDS011;48102;47.526;19.072;2023-09-08T09:28:10;5.85;;;3.62;;
62110;SDS011;48102;47.526;19.072;2023-09-08T09:31:13;7.72;;;4.22;;
62110;SDS011;48102;47.526;19.072;2023-09-08T09:34:16;6.80;;;3.53;;
62110;SDS011;48102;47.526;19.072;2023-09-08T09:37:22;6.15;;;3.40;;
62110;SDS011;48102;47.526;19.072;2023-09-08T09:40:27;5.87;;;3.25;;
62110;SDS011;48102;47.526;19.072;2023-09-08T09:43:31;8.45;;;3.97;;
62110;SDS011;48102;47.526;19.072;2023-09-08T09:46:34;7.80;;;3.87;;
62110;SDS011;48102;47.526;19.072;2023-09-08T09:49:44;10.55;;;3.78;;
62110;SDS011;48102;47.526;19.072;2023-09-08T09:52:48;8.85;;;3.67;;
62110;SDS011;48102;47.526;19.072;2023-09-08T09:55:51;8.98;;;4.53;;
62110;SDS011;48102;47.526;19.072;2023-09-08T09:58:55;4.50;;;3.35;;
62110;SDS011;48102;47.526;19.072;2023-09-08T10:01:58;4.68;;;3.60;;
62110;SDS011;48102;47.526;19.072;2023-09-08T10:05:10;6.45;;;3.35;;
62110;SDS011;48102;47.526;19.072;2023-09-08T10:08:15;5.15;;;3.45;;
62110;SDS011;48102;47.526;19.072;2023-09-08T10:11:20;5.68;;;3.42;;
62110;SDS011;48102;47.526;19.072;2023-09-08T10:14:24;10.00;;;3.80;;
62110;SDS011;48102;47.526;19.072;2023-09-08T10:17:31;8.75;;;3.58;;
62110;SDS011;48102;47.526;19.072;2023-09-08T10:20:37;4.85;;;3.70;;
62110;SDS011;48102;47.526;19.072;2023-09-08T10:23:43;3.97;;;3.58;;
62110;SDS011;48102;47.526;19.072;2023-09-08T10:30:13;4.45;;;3.28;;
62110;SDS011;48102;47.526;19.072;2023-09-08T10:33:17;5.00;;;3.33;;
62110;SDS011;48102;47.526;19.072;2023-09-08T10:36:25;5.50;;;3.35;;
62110;SDS011;48102;47.526;19.072;2023-09-08T10:39:32;4.28;;;3.15;;
62110;SDS011;48102;47.526;19.072;2023-09-08T10:42:40;9.15;;;3.20;;
62110;SDS011;48102;47.526;19.072;2023-09-08T10:45:46;4.05;;;2.78;;
62110;SDS011;48102;47.526;19.072;2023-09-08T10:48:50;12.90;;;3.85;;
62110;SDS011;48102;47.526;19.072;2023-09-08T10:52:05;4.62;;;3.28;;
62110;SDS011;48102;47.526;19.072;2023-09-08T10:55:12;4.15;;;3.45;;
62110;SDS011;48102;47.526;19.072;2023-09-08T10:58:32;6.35;;;3.72;;
62110;SDS011;48102;47.526;19.072;2023-09-08T11:01:38;6.40;;;2.85;;
62110;SDS011;48102;47.526;19.072;2023-09-08T11:04:44;5.68;;;3.40;;
62110;SDS011;48102;47.526;19.072;2023-09-08T11:07:48;7.82;;;3.08;;
62110;SDS011;48102;47.526;19.072;2023-09-08T11:10:55;7.28;;;3.30;;
62110;SDS011;48102;47.526;19.072;2023-09-08T11:13:59;4.47;;;2.83;;
62110;SDS011;48102;47.526;19.072;2023-09-08T11:17:04;4.07;;;2.70;;
62110;SDS011;48102;47.526;19.072;2023-09-08T11:20:07;5.07;;;2.70;;
62110;SDS011;48102;47.526;19.072;2023-09-08T11:23:13;3.75;;;2.60;;
62110;SDS011;48102;47.526;19.072;2023-09-08T11:26:16;6.30;;;2.60;;
62110;SDS011;48102;47.526;19.072;2023-09-08T11:29:19;3.67;;;2.80;;
62110;SDS011;48102;47.526;19.072;2023-09-08T11:32:22;6.62;;;2.78;;
62110;SDS011;48102;47.526;19.072;2023-09-08T11:35:26;3.85;;;2.62;;
62110;SDS011;48102;47.526;19.072;2023-09-08T11:38:29;4.45;;;2.90;;
62110;SDS011;48102;47.526;19.072;2023-09-08T11:41:34;3.53;;;2.85;;
62110;SDS011;48102;47.526;19.072;2023-09-08T11:44:41;5.22;;;2.62;;
62110;SDS011;48102;47.526;19.072;2023-09-08T11:47:45;4.72;;;2.70;;
62110;SDS011;48102;47.526;19.072;2023-09-08T11:50:48;3.62;;;2.60;;
62110;SDS011;48102;47.526;19.072;2023-09-08T11:53:51;7.03;;;2.85;;
62110;SDS011;48102;47.526;19.072;2023-09-08T11:56:55;4.18;;;2.35;;
62110;SDS011;48102;47.526;19.072;2023-09-08T11:59:59;4.80;;;2.90;;
62110;SDS011;48102;47.526;19.072;2023-09-08T12:03:09;6.37;;;2.78;;
62110;SDS011;48102;47.526;19.072;2023-09-08T12:06:17;4.75;;;3.28;;
62110;SDS011;48102;47.526;19.072;2023-09-08T12:09:20;5.53;;;2.83;;
62110;SDS011;48102;47.526;19.072;2023-09-08T12:12:25;4.32;;;2.53;;
62110;SDS011;48102;47.526;19.072;2023-09-08T12:15:36;3.92;;;3.22;;
62110;SDS011;48102;47.526;19.072;2023-09-08T12:18:40;4.97;;;2.80;;
62110;SDS011;48102;47.526;19.072;2023-09-08T12:21:56;3.30;;;2.50;;
62110;SDS011;48102;47.526;19.072;2023-09-08T12:25:02;4.62;;;3.12;;
62110;SDS011;48102;47.526;19.072;2023-09-08T12:28:10;4.50;;;2.72;;
62110;SDS011;48102;47.526;19.072;2023-09-08T12:31:13;4.37;;;3.12;;
62110;SDS011;48102;47.526;19.072;2023-09-08T12:34:18;3.55;;;2.58;;
62110;SDS011;48102;47.526;19.072;2023-09-08T12:37:22;6.82;;;3.12;;
62110;SDS011;48102;47.526;19.072;2023-09-08T12:40:29;5.10;;;3.03;;
62110;SDS011;48102;47.526;19.072;2023-09-08T12:43:33;5.35;;;2.70;;
62110;SDS011;48102;47.526;19.072;2023-09-08T12:46:37;3.50;;;2.50;;
62110;SDS011;48102;47.526;19.072;2023-09-08T12:49:40;4.78;;;3.03;;
62110;SDS011;48102;47.526;19.072;2023-09-08T12:52:43;4.80;;;3.33;;
62110;SDS011;48102;47.526;19.072;2023-09-08T12:55:46;3.65;;;3.20;;
62110;SDS011;48102;47.526;19.072;2023-09-08T12:58:49;7.20;;;2.95;;
62110;SDS011;48102;47.526;19.072;2023-09-08T13:01:53;5.25;;;2.70;;
62110;SDS011;48102;47.526;19.072;2023-09-08T13:04:56;3.90;;;2.55;;
62110;SDS011;48102;47.526;19.072;2023-09-08T13:08:00;5.57;;;2.58;;
62110;SDS011;48102;47.526;19.072;2023-09-08T13:11:03;3.12;;;2.80;;
62110;SDS011;48102;47.526;19.072;2023-09-08T13:14:06;4.07;;;2.53;;
62110;SDS011;48102;47.526;19.072;2023-09-08T13:17:10;2.90;;;2.17;;
62110;SDS011;48102;47.526;19.072;2023-09-08T13:20:16;5.95;;;3.28;;
62110;SDS011;48102;47.526;19.072;2023-09-08T13:23:19;3.75;;;2.87;;
62110;SDS011;48102;47.526;19.072;2023-09-08T13:26:24;2.92;;;2.70;;
62110;SDS011;48102;47.526;19.072;2023-09-08T13:29:27;5.75;;;2.70;;
62110;SDS011;48102;47.526;19.072;2023-09-08T13:32:31;6.12;;;2.67;;
62110;SDS011;48102;47.526;19.072;2023-09-08T13:35:33;3.37;;;2.95;;
62110;SDS011;48102;47.526;19.072;2023-09-08T13:38:36;3.17;;;2.87;;
62110;SDS011;48102;47.526;19.072;2023-09-08T13:41:47;3.28;;;2.83;;
62110;SDS011;48102;47.526;19.072;2023-09-08T13:44:55;3.05;;;2.50;;
62110;SDS011;48102;47.526;19.072;2023-09-08T13:47:59;5.37;;;2.85;;
62110;SDS011;48102;47.526;19.072;2023-09-08T13:51:02;5.57;;;2.65;;
62110;SDS011;48102;47.526;19.072;2023-09-08T13:54:08;2.80;;;2.58;;
62110;SDS011;48102;47.526;19.072;2023-09-08T13:57:14;7.35;;;2.97;;
62110;SDS011;48102;47.526;19.072;2023-09-08T14:00:21;3.37;;;3.05;;
62110;SDS011;48102;47.526;19.072;2023-09-08T14:03:27;3.10;;;2.60;;
62110;SDS011;48102;47.526;19.072;2023-09-08T14:06:32;4.47;;;2.67;;
62110;SDS011;48102;47.526;19.072;2023-09-08T14:09:42;3.65;;;2.75;;
62110;SDS011;48102;47.526;19.072;2023-09-08T14:12:57;3.10;;;2.80;;
62110;SDS011;48102;47.526;19.072;2023-09-08T14:16:00;3.53;;;2.60;;
62110;SDS011;48102;47.526;19.072;2023-09-08T14:19:04;2.80;;;2.55;;
62110;SDS011;48102;47.526;19.072;2023-09-08T14:22:07;4.60;;;2.97;;
62110;SDS011;48102;47.526;19.072;2023-09-08T14:25:11;4.53;;;2.60;;
62110;SDS011;48102;47.526;19.072;2023-09-08T14:28:14;4.00;;;2.80;;
62110;SDS011;48102;47.526;19.072;2023-09-08T14:31:17;2.97;;;2.55;;
62110;SDS011;48102;47.526;19.072;2023-09-08T14:34:20;6.40;;;2.67;;
62110;SDS011;48102;47.526;19.072;2023-09-08T14:37:23;6.45;;;2.78;;
62110;SDS011;48102;47.526;19.072;2023-09-08T14:40:26;6.95;;;2.62;;
62110;SDS011;48102;47.526;19.072;2023-09-08T14:43:29;3.25;;;2.62;;
62110;SDS011;48102;47.526;19.072;2023-09-08T14:46:32;4.78;;;2.67;;
62110;SDS011;48102;47.526;19.072;2023-09-08T14:49:35;4.62;;;2.80;;
62110;SDS011;48102;47.526;19.072;2023-09-08T14:52:38;5.47;;;3.00;;
62110;SDS011;48102;47.526;19.072;2023-09-08T14:55:43;3.40;;;2.95;;
62110;SDS011;48102;47.526;19.072;2023-09-08T14:58:47;7.50;;;2.70;;
62110;SDS011;48102;47.526;19.072;2023-09-08T15:01:50;6.43;;;2.67;;
62110;SDS011;48102;47.526;19.072;2023-09-08T15:04:56;3.30;;;2.90;;
62110;SDS011;48102;47.526;19.072;2023-09-08T15:07:59;6.55;;;2.80;;
62110;SDS011;48102;47.526;19.072;2023-09-08T18:01:02;7.65;;;3.28;;
62110;SDS011;48102;47.526;19.072;2023-09-08T18:04:06;10.75;;;3.90;;
62110;SDS011;48102;47.526;19.072;2023-09-08T18:07:10;7.72;;;3.67;;
62110;SDS011;48102;47.526;19.072;2023-09-08T18:10:13;6.72;;;3.10;;
62110;SDS011;48102;47.526;19.072;2023-09-08T18:13:17;4.62;;;3.20;;
62110;SDS011;48102;47.526;19.072;2023-09-08T18:16:23;9.30;;;3.47;;
